Time;durP1;ratioP1;P1;durP2;ratioP2;P2;SDS_P1;SDS_P2;PMS_P1;PMS_P2;Temp;Humidity;BMP_temperature;BMP_pressure;BME280_temperature;BME280_humidity;BME280_pressure;Samples;Min_cycle;Max_cycle;Signal;HPM_P1;HPM_P2
2023/05/20 07:13:36;;;;;;;6.55;4.78;;;15.50;1.00;;;;;;4959657;23;20245;-87
2023/05/20 07:16:03;;;;;;;6.20;4.72;;;15.70;99.90;;;;;;4947214;29;20214;-87
2023/05/20 07:18:30;;;;;;;5.82;4.40;;;15.80;99.90;;;;;;4969844;28;20276;-88
2023/05/20 07:20:56;;;;;;;6.07;4.50;;;15.90;99.90;;;;;;4943929;29;20248;-88
2023/05/20 07:23:23;;;;;;;8.43;5.07;;;16.00;22.10;;;;;;4954264;29;20262;-88
2023/05/20 07:25:50;;;;;;;6.70;4.65;;;16.10;1.00;;;;;;4965106;28;20269;-88
2023/05/20 07:28:17;;;;;;;6.68;4.57;;;16.20;1.00;;;;;;4953886;28;20444;-87
2023/05/20 07:30:48;;;;;;;7.00;4.97;;;16.30;1.00;;;;;;4955789;28;20651;-87
2023/05/20 07:33:16;;;;;;;7.03;4.95;;;16.40;1.00;;;;;;4955752;28;20198;-87
2023/05/20 07:35:43;;;;;;;8.73;5.53;;;16.40;1.00;;;;;;4960413;28;20222;-88
2023/05/20 07:38:11;;;;;;;8.77;5.68;;;16.50;1.00;;;;;;4945586;29;20201;-88
2023/05/20 07:40:39;;;;;;;8.32;5.15;;;16.60;1.00;;;;;;4949425;28;20207;-87
2023/05/20 07:43:06;;;;;;;9.85;5.45;;;16.60;1.00;;;;;;4953358;29;20199;-88
2023/05/20 07:45:34;;;;;;;7.43;5.20;;;16.70;1.00;;;;;;4946297;28;20191;-87
2023/05/20 07:48:03;;;;;;;7.60;5.57;;;16.80;1.00;;;;;;4957895;28;20200;-87
2023/05/20 07:50:30;;;;;;;8.02;5.03;;;16.90;1.00;;;;;;4953377;29;20238;-87
2023/05/20 07:52:57;;;;;;;9.98;5.38;;;17.00;1.00;;;;;;4961148;28;20570;-86
2023/05/20 07:55:24;;;;;;;9.02;5.35;;;17.00;1.00;;;;;;4953393;28;20270;-88
2023/05/20 07:57:51;;;;;;;7.57;5.32;;;17.00;99.90;;;;;;4953930;29;20346;-87
2023/05/20 08:00:18;;;;;;;8.23;5.53;;;17.00;99.90;;;;;;4958923;28;20220;-87
2023/05/20 08:02:46;;;;;;;6.93;5.53;;;17.10;99.90;;;;;;4963833;28;20196;-87
2023/05/20 08:05:14;;;;;;;8.57;5.82;;;17.00;99.90;;;;;;4957880;28;20192;-87
2023/05/20 08:07:41;;;;;;;9.73;6.00;;;16.90;99.90;;;;;;4958443;28;20207;-87
2023/05/20 08:10:09;;;;;;;7.28;5.70;;;16.80;99.90;;;;;;4967696;28;20195;-87
2023/05/20 08:12:36;;;;;;;11.02;5.18;;;16.80;99.90;;;;;;4953806;28;20248;-86
2023/05/20 08:15:04;;;;;;;10.43;5.20;;;16.80;99.90;;;;;;4956269;28;20340;-86
2023/05/20 08:17:31;;;;;;;7.47;5.38;;;16.80;99.90;;;;;;4965258;28;20230;-87
2023/05/20 08:19:57;;;;;;;9.02;5.00;;;16.90;1.00;;;;;;4961700;28;20263;-87
2023/05/20 08:22:26;;;;;;;9.25;5.18;;;17.20;99.90;;;;;;4953139;28;20250;-87
2023/05/20 08:24:53;;;;;;;8.88;5.35;;;17.50;99.90;;;;;;4955272;28;20196;-87
2023/05/20 08:27:20;;;;;;;6.88;5.28;;;17.80;99.90;;;;;;4966723;28;20251;-87
2023/05/20 08:29:47;;;;;;;7.00;5.30;;;18.20;99.90;;;;;;4963789;28;20193;-86
2023/05/20 08:32:13;;;;;;;9.60;5.47;;;18.30;99.90;;;;;;4958103;28;20255;-89
2023/05/20 08:34:41;;;;;;;7.63;5.40;;;18.50;5.90;;;;;;4957511;28;20652;-88
2023/05/20 08:37:08;;;;;;;7.70;5.25;;;18.60;1.00;;;;;;4957230;28;20201;-87
2023/05/20 08:39:36;;;;;;;8.82;5.18;;;19.00;1.00;;;;;;4959146;28;20671;-88
2023/05/20 08:42:05;;;;;;;6.85;5.30;;;19.20;1.00;;;;;;4959793;28;20244;-86
2023/05/20 08:44:34;;;;;;;6.68;5.45;;;19.50;1.00;;;;;;4957657;28;20283;-88
2023/05/20 08:47:02;;;;;;;6.22;4.68;;;19.90;1.00;;;;;;4956898;28;20260;-87
2023/05/20 08:49:29;;;;;;;7.22;4.95;;;20.40;1.00;;;;;;4956719;29;20231;-88
2023/05/20 08:51:56;;;;;;;9.13;5.50;;;20.80;1.00;;;;;;4958911;28;20196;-88
2023/05/20 08:54:25;;;;;;;8.02;6.05;;;21.10;1.00;;;;;;4958158;28;20204;-88
2023/05/20 08:56:54;;;;;;;7.97;5.30;;;21.40;1.00;;;;;;4957355;29;20283;-88
2023/05/20 08:59:22;;;;;;;6.75;5.03;;;21.50;1.00;;;;;;4961088;28;20228;-88
2023/05/20 09:01:49;;;;;;;7.00;5.53;;;21.50;1.00;;;;;;4966894;28;20247;-88
2023/05/20 09:04:16;;;;;;;10.43;5.50;;;21.40;1.00;;;;;;4959619;28;20216;-88
2023/05/20 09:06:43;;;;;;;7.50;5.15;;;21.20;1.00;;;;;;4956324;29;20228;-88
2023/05/20 09:09:11;;;;;;;7.25;4.90;;;21.00;1.00;;;;;;4971414;28;20622;-87
2023/05/20 09:11:39;;;;;;;8.68;4.93;;;20.80;1.00;;;;;;4960863;28;20219;-88
2023/05/20 09:14:08;;;;;;;9.20;5.00;;;20.70;1.00;;;;;;4964180;28;20323;-88
2023/05/20 09:16:35;;;;;;;10.82;5.20;;;20.60;1.00;;;;;;4961368;28;20630;-87
2023/05/20 09:19:02;;;;;;;6.78;5.07;;;20.40;1.00;;;;;;4956751;28;20255;-88
2023/05/20 09:21:29;;;;;;;7.65;5.15;;;20.40;1.00;;;;;;4965216;28;20267;-88
2023/05/20 09:23:58;;;;;;;6.45;4.97;;;20.40;1.00;;;;;;4971875;28;20196;-88
2023/05/20 09:26:27;;;;;;;6.95;5.07;;;20.50;1.00;;;;;;4958946;28;20204;-88
2023/05/20 09:28:56;;;;;;;6.93;4.95;;;20.40;1.00;;;;;;4963066;28;20231;-88
2023/05/20 09:31:28;;;;;;;7.65;5.13;;;20.20;1.00;;;;;;4968693;28;20197;-89
2023/05/20 09:33:55;;;;;;;8.13;4.97;;;20.20;1.00;;;;;;4955150;29;20203;-87
2023/05/20 09:36:23;;;;;;;8.73;5.05;;;20.10;1.00;;;;;;4956741;28;20311;-87
2023/05/20 09:38:53;;;;;;;6.05;4.68;;;20.20;1.00;;;;;;4967149;28;20188;-87
2023/05/20 09:41:24;;;;;;;7.15;5.22;;;20.20;1.00;;;;;;4960553;28;20240;-87
2023/05/20 09:43:53;;;;;;;5.68;4.82;;;20.30;1.00;;;;;;4959247;28;20748;-87
2023/05/20 09:46:20;;;;;;;7.70;4.82;;;20.50;1.00;;;;;;4968974;28;20671;-88
2023/05/20 09:48:49;;;;;;;8.38;5.25;;;20.70;1.00;;;;;;4956177;29;20259;-88
2023/05/20 09:51:17;;;;;;;7.28;4.95;;;20.80;1.00;;;;;;4955728;29;20542;-88
2023/05/20 09:53:44;;;;;;;6.53;4.78;;;20.90;99.90;;;;;;4958789;28;20197;-87
2023/05/20 09:56:12;;;;;;;6.30;5.07;;;21.10;99.90;;;;;;4960288;28;20266;-88
2023/05/20 09:58:42;;;;;;;6.63;4.80;;;21.20;99.90;;;;;;4955511;29;20200;-88
2023/05/20 10:01:09;;;;;;;8.48;5.25;;;21.40;99.90;;;;;;4960244;28;20266;-88
2023/05/20 10:03:36;;;;;;;7.68;5.05;;;21.50;99.90;;;;;;4955883;29;20208;-87
2023/05/20 10:06:19;;;;;;;6.60;5.20;;;21.50;99.90;;;;;;4971460;28;20254;-88
2023/05/20 10:09:06;;;;;;;8.30;5.53;;;21.60;99.90;;;;;;4972287;28;20200;-88
2023/05/20 10:11:40;;;;;;;7.15;4.57;;;21.70;99.90;;;;;;4958853;28;20752;-87
2023/05/20 10:14:27;;;;;;;6.55;5.10;;;21.80;99.90;;;;;;4961074;28;20738;-88
2023/05/20 10:17:00;;;;;;;10.55;4.65;;;21.80;99.90;;;;;;4960639;28;20208;-87
2023/05/20 10:19:29;;;;;;;6.32;5.00;;;21.80;99.90;;;;;;4956576;28;20263;-88
2023/05/20 10:22:03;;;;;;;6.40;4.45;;;21.90;99.90;;;;;;4957654;28;20290;-88
2023/05/20 10:24:32;;;;;;;6.97;4.97;;;22.00;99.90;;;;;;4955077;28;20204;-88
2023/05/20 10:27:01;;;;;;;6.82;5.07;;;22.30;99.90;;;;;;4959845;28;20224;-88
2023/05/20 10:29:28;;;;;;;5.70;4.85;;;22.40;99.90;;;;;;4964750;28;20195;-89
2023/05/20 10:31:56;;;;;;;6.00;4.50;;;22.40;99.90;;;;;;4961634;28;20204;-88
2023/05/20 10:34:23;;;;;;;6.03;4.45;;;22.40;99.90;;;;;;4957548;28;20200;-87
2023/05/20 10:37:01;;;;;;;7.65;5.10;;;22.40;99.90;;;;;;4954819;29;20271;-88
2023/05/20 10:39:29;;;;;;;5.90;4.53;;;22.50;99.90;;;;;;4954004;28;20208;-87
2023/05/20 10:42:07;;;;;;;6.60;4.65;;;22.60;99.90;;;;;;4955180;29;20208;-88
2023/05/20 10:44:43;;;;;;;6.65;4.80;;;22.70;99.90;;;;;;4955260;28;20676;-88
2023/05/20 10:47:10;;;;;;;6.95;4.80;;;22.80;99.90;;;;;;4958496;28;20193;-88
2023/05/20 10:49:45;;;;;;;6.10;4.40;;;23.10;99.90;;;;;;4956142;28;20199;-88
2023/05/20 10:52:14;;;;;;;6.90;5.03;;;23.30;99.90;;;;;;4956003;28;20233;-88
2023/05/20 10:54:45;;;;;;;6.22;4.65;;;23.50;99.90;;;;;;4954416;28;20196;-88
2023/05/20 10:57:12;;;;;;;6.32;4.35;;;23.50;99.90;;;;;;4955086;28;20222;-88
2023/05/20 10:59:39;;;;;;;6.13;4.50;;;23.50;99.90;;;;;;4953656;29;20189;-88
2023/05/20 11:02:07;;;;;;;6.60;4.55;;;23.40;99.90;;;;;;4953316;28;20247;-88
2023/05/20 11:04:35;;;;;;;5.75;4.60;;;23.30;99.90;;;;;;4954728;28;20329;-88
2023/05/20 11:07:02;;;;;;;5.20;4.30;;;23.30;99.90;;;;;;4953848;28;20195;-88
2023/05/20 11:09:31;;;;;;;4.53;4.07;;;23.20;99.90;;;;;;4958999;28;20268;-89
2023/05/20 11:11:58;;;;;;;8.13;4.38;;;23.00;99.90;;;;;;4956414;28;20212;-89
2023/05/20 11:14:25;;;;;;;6.72;4.60;;;22.70;99.90;;;;;;4957428;28;20196;-89
2023/05/20 11:16:53;;;;;;;5.20;4.10;;;22.30;99.90;;;;;;4953545;29;20220;-88
2023/05/20 11:19:20;;;;;;;7.10;4.30;;;21.90;99.90;;;;;;4957973;28;20371;-89
2023/05/20 11:21:47;;;;;;;5.78;4.20;;;21.60;99.90;;;;;;4954591;29;20251;-89
2023/05/20 11:24:15;;;;;;;5.78;4.70;;;21.50;99.90;;;;;;4953795;29;20654;-89
2023/05/20 11:26:43;;;;;;;5.25;4.38;;;21.60;99.90;;;;;;4956353;28;20199;-90
2023/05/20 11:29:10;;;;;;;9.30;4.55;;;21.70;99.90;;;;;;4964098;28;20192;-89
2023/05/20 11:31:38;;;;;;;10.93;4.82;;;21.80;99.90;;;;;;4965649;28;20201;-89
2023/05/20 11:34:05;;;;;;;5.65;4.18;;;21.90;99.90;;;;;;4954421;29;20664;-89
2023/05/20 11:36:32;;;;;;;5.80;4.07;;;22.10;99.90;;;;;;4944437;29;20651;-89
2023/05/20 11:39:00;;;;;;;6.90;5.03;;;22.20;99.90;;;;;;4953672;29;20196;-88
2023/05/20 11:41:28;;;;;;;12.98;8.82;;;22.40;99.90;;;;;;4957785;28;20255;-89
2023/05/20 11:43:58;;;;;;;6.47;4.22;;;22.70;99.90;;;;;;4953968;29;20656;-89
2023/05/20 11:46:25;;;;;;;6.00;4.25;;;23.00;99.90;;;;;;4954048;29;20196;-88
2023/05/20 11:48:53;;;;;;;6.03;4.00;;;23.20;99.90;;;;;;4956373;28;20196;-88
2023/05/20 11:51:23;;;;;;;5.50;4.43;;;23.10;99.90;;;;;;4954465;28;20652;-88
2023/05/20 11:53:50;;;;;;;5.75;4.00;;;23.30;99.90;;;;;;4958078;28;20252;-88
2023/05/20 11:56:17;;;;;;;5.35;4.43;;;23.80;99.90;;;;;;4954039;28;20216;-88
2023/05/20 11:58:44;;;;;;;4.80;4.00;;;24.10;99.90;;;;;;4957826;28;20196;-89
2023/05/20 12:01:13;;;;;;;4.55;4.00;;;24.50;99.90;;;;;;4964732;28;20224;-88
2023/05/20 12:03:40;;;;;;;5.85;4.53;;;24.60;99.90;;;;;;4955861;28;20207;-89
2023/05/20 12:06:07;;;;;;;5.38;4.10;;;24.50;99.90;;;;;;4960797;28;20192;-90
2023/05/20 12:08:34;;;;;;;6.90;4.20;;;24.40;99.90;;;;;;4960165;28;20550;-89
2023/05/20 12:11:01;;;;;;;6.95;4.50;;;24.30;99.90;;;;;;4957339;29;20657;-89
2023/05/20 12:13:28;;;;;;;4.15;3.67;;;24.20;99.90;;;;;;4961830;28;20223;-89
2023/05/20 12:15:55;;;;;;;6.57;4.05;;;24.00;99.90;;;;;;4956012;29;20735;-89
2023/05/20 12:18:23;;;;;;;6.35;4.20;;;24.00;99.90;;;;;;4957600;28;20200;-89
2023/05/20 12:20:50;;;;;;;5.80;4.03;;;23.90;99.90;;;;;;4959674;28;20631;-90
2023/05/20 12:23:17;;;;;;;5.85;4.18;;;24.00;99.90;;;;;;4959022;28;20661;-89
2023/05/20 12:25:46;;;;;;;5.45;3.92;;;23.90;99.90;;;;;;4956538;29;20202;-90
2023/05/20 12:28:13;;;;;;;5.13;3.80;;;23.60;99.90;;;;;;4956640;29;20279;-89
2023/05/20 12:30:40;;;;;;;4.70;3.70;;;23.40;99.90;;;;;;4957542;29;20214;-89
2023/05/20 12:33:08;;;;;;;5.60;3.90;;;23.40;99.90;;;;;;4958018;29;20192;-90
2023/05/20 12:35:40;;;;;;;6.20;3.85;;;23.40;99.90;;;;;;4972178;28;20204;-88
2023/05/20 12:38:08;;;;;;;7.18;4.25;;;23.30;99.90;;;;;;4960073;28;20608;-88
2023/05/20 12:40:35;;;;;;;6.93;3.88;;;23.20;99.90;;;;;;4961232;28;20196;-89
2023/05/20 12:43:03;;;;;;;6.53;4.38;;;22.90;99.90;;;;;;4957040;28;20192;-89
2023/05/20 12:45:30;;;;;;;4.43;3.72;;;22.70;99.90;;;;;;4957382;29;20200;-89
2023/05/20 12:47:58;;;;;;;6.30;4.05;;;22.70;99.90;;;;;;4960368;28;20329;-89
2023/05/20 12:50:25;;;;;;;7.55;4.43;;;22.70;99.90;;;;;;4965306;28;20714;-89
2023/05/20 12:52:53;;;;;;;4.53;3.97;;;22.70;99.90;;;;;;4961622;28;20231;-89
2023/05/20 12:55:20;;;;;;;5.47;4.35;;;22.70;99.90;;;;;;4957193;29;20263;-89
2023/05/20 12:57:48;;;;;;;6.43;4.28;;;22.70;99.90;;;;;;4957241;29;20243;-89
2023/05/20 13:00:16;;;;;;;5.82;4.25;;;22.60;99.90;;;;;;4973052;28;20246;-89
2023/05/20 13:02:43;;;;;;;5.38;4.20;;;22.60;99.90;;;;;;4957522;29;20263;-89
2023/05/20 13:05:11;;;;;;;8.02;4.57;;;22.60;99.90;;;;;;4966102;28;20197;-89
2023/05/20 13:07:39;;;;;;;6.20;4.00;;;22.50;99.90;;;;;;4960875;28;20223;-89
2023/05/20 13:10:09;;;;;;;4.30;3.70;;;22.50;99.90;;;;;;4970400;28;20207;-89
2023/05/20 13:12:36;;;;;;;6.15;4.10;;;22.50;99.90;;;;;;4940894;29;20230;-89
2023/05/20 13:15:03;;;;;;;4.53;4.03;;;22.50;99.90;;;;;;4957238;29;20243;-89
2023/05/20 13:17:30;;;;;;;6.45;4.47;;;22.60;99.90;;;;;;4968851;28;20215;-89
2023/05/20 13:19:58;;;;;;;4.82;4.30;;;22.60;99.90;;;;;;4957137;28;20298;-89
2023/05/20 13:22:25;;;;;;;7.60;4.20;;;22.80;99.90;;;;;;4956533;29;20688;-89
2023/05/20 13:24:51;;;;;;;5.20;4.35;;;22.80;99.90;;;;;;4957038;29;20192;-89
2023/05/20 13:27:20;;;;;;;5.72;4.15;;;22.70;99.90;;;;;;4956971;29;20230;-89
2023/05/20 13:29:47;;;;;;;5.05;3.97;;;22.70;99.90;;;;;;4958796;28;20669;-89
2023/05/20 13:32:14;;;;;;;5.47;3.92;;;22.80;99.90;;;;;;4964835;28;20683;-88
2023/05/20 13:34:41;;;;;;;5.95;3.95;;;23.00;99.90;;;;;;4964513;28;20208;-89
2023/05/20 13:37:08;;;;;;;9.00;3.97;;;23.10;99.90;;;;;;4956254;29;20700;-88
2023/05/20 13:39:35;;;;;;;5.20;4.05;;;23.20;99.90;;;;;;4956453;29;20621;-89
2023/05/20 13:42:03;;;;;;;4.55;3.85;;;23.30;99.90;;;;;;4964236;28;20189;-89
2023/05/20 13:44:31;;;;;;;5.03;3.80;;;23.40;99.90;;;;;;4968475;28;20207;-89
2023/05/20 13:46:58;;;;;;;6.15;3.90;;;23.40;99.90;;;;;;4952128;29;20247;-89
2023/05/20 13:49:25;;;;;;;4.88;4.13;;;23.40;99.90;;;;;;4958445;28;20628;-88
2023/05/20 13:51:52;;;;;;;6.90;4.13;;;23.40;99.90;;;;;;4969753;28;20218;-89
2023/05/20 13:54:20;;;;;;;4.65;4.15;;;23.40;99.90;;;;;;4965375;28;20664;-88
2023/05/20 13:56:47;;;;;;;4.55;3.78;;;23.50;99.90;;;;;;4959910;28;20216;-89
2023/05/20 13:59:14;;;;;;;6.72;4.18;;;23.60;99.90;;;;;;4958481;28;20205;-90
2023/05/20 14:01:43;;;;;;;5.05;4.30;;;23.60;99.90;;;;;;4960232;28;20250;-90
2023/05/20 14:04:11;;;;;;;5.18;4.20;;;23.50;99.90;;;;;;4956975;28;20228;-89
2023/05/20 14:06:38;;;;;;;4.47;3.92;;;23.50;99.90;;;;;;4971318;28;20203;-89
2023/05/20 14:09:07;;;;;;;5.72;4.20;;;23.50;99.90;;;;;;4956322;29;20192;-90
2023/05/20 14:11:34;;;;;;;7.07;4.32;;;23.40;99.90;;;;;;4954545;29;20227;-89
2023/05/20 14:14:01;;;;;;;9.05;4.10;;;23.40;99.90;;;;;;4957362;28;20254;-90
2023/05/20 14:16:28;;;;;;;7.25;4.25;;;23.40;99.90;;;;;;4955301;29;20200;-89
2023/05/20 14:18:56;;;;;;;6.57;4.10;;;23.40;99.90;;;;;;4955199;29;20220;-88
2023/05/20 14:21:23;;;;;;;8.07;4.05;;;23.50;99.90;;;;;;4957676;28;20621;-90
2023/05/20 14:23:50;;;;;;;5.65;3.90;;;23.60;99.90;;;;;;4960253;28;20736;-90
2023/05/20 14:26:17;;;;;;;5.68;4.10;;;23.60;99.90;;;;;;4962964;28;20197;-90
2023/05/20 14:28:45;;;;;;;5.57;4.00;;;23.60;99.90;;;;;;4960833;28;20196;-89
2023/05/20 14:31:12;;;;;;;7.72;4.40;;;23.70;99.90;;;;;;4966885;28;20210;-89
2023/05/20 14:33:39;;;;;;;8.07;4.18;;;23.60;99.90;;;;;;4955588;29;20196;-90
2023/05/20 14:36:08;;;;;;;6.10;4.30;;;23.60;99.90;;;;;;4955782;29;20687;-89
2023/05/20 14:38:35;;;;;;;5.57;4.43;;;23.50;99.90;;;;;;4959463;28;20574;-90
2023/05/20 14:41:02;;;;;;;4.47;4.07;;;23.30;99.90;;;;;;4955845;29;20312;-90
2023/05/20 14:43:30;;;;;;;6.55;4.30;;;23.30;99.90;;;;;;4956222;29;20255;-88
2023/05/20 14:45:57;;;;;;;5.15;4.07;;;23.30;99.90;;;;;;4958275;28;20193;-90
2023/05/20 14:48:24;;;;;;;5.45;4.18;;;23.40;99.90;;;;;;4957298;28;20196;-89
2023/05/20 14:50:51;;;;;;;5.13;3.92;;;23.40;99.90;;;;;;4960143;28;20192;-89
2023/05/20 14:53:20;;;;;;;6.28;4.13;;;23.40;99.90;;;;;;4955436;29;20208;-90
2023/05/20 14:55:47;;;;;;;4.68;4.20;;;23.40;99.90;;;;;;4959644;28;20255;-89
2023/05/20 14:58:14;;;;;;;6.63;4.40;;;23.50;99.90;;;;;;4960476;28;20756;-90
2023/05/20 15:00:41;;;;;;;5.35;4.38;;;23.50;99.90;;;;;;4970951;28;20632;-91
2023/05/20 15:03:08;;;;;;;7.25;4.30;;;23.60;99.90;;;;;;4955790;28;20204;-89
2023/05/20 15:05:35;;;;;;;4.53;3.85;;;23.60;99.90;;;;;;4955639;28;20263;-90
2023/05/20 15:08:02;;;;;;;4.57;3.80;;;23.60;99.90;;;;;;4962097;28;20191;-90
2023/05/20 15:10:30;;;;;;;4.97;4.10;;;23.60;99.90;;;;;;4967820;28;20664;-89
2023/05/20 15:12:57;;;;;;;8.70;3.83;;;23.60;99.90;;;;;;4955508;29;20225;-90
2023/05/20 15:15:24;;;;;;;5.82;3.78;;;23.40;99.90;;;;;;4955706;29;20270;-90
2023/05/20 15:17:51;;;;;;;4.32;3.85;;;23.40;99.90;;;;;;4955771;29;20278;-90
2023/05/20 15:20:18;;;;;;;7.80;3.78;;;23.50;99.90;;;;;;4955442;29;20251;-90
2023/05/20 15:22:47;;;;;;;5.38;3.75;;;23.60;99.90;;;;;;4955687;29;20278;-90
2023/05/20 15:25:13;;;;;;;5.15;3.72;;;23.60;99.90;;;;;;4955398;29;20207;-89
2023/05/20 15:27:42;;;;;;;6.45;3.90;;;23.60;99.90;;;;;;4955629;29;20610;-90
2023/05/20 15:30:10;;;;;;;5.03;3.78;;;23.60;99.90;;;;;;4955674;29;20204;-90
2023/05/20 15:32:38;;;;;;;7.72;4.00;;;23.60;99.90;;;;;;4953939;29;20200;-90
2023/05/20 15:35:06;;;;;;;6.80;3.90;;;23.70;99.90;;;;;;4954558;28;20593;-90
2023/05/20 15:37:33;;;;;;;8.57;3.72;;;23.70;99.90;;;;;;4957679;28;20632;-90
2023/05/20 15:40:00;;;;;;;4.85;3.60;;;23.60;99.90;;;;;;4974762;28;20664;-90
2023/05/20 15:42:27;;;;;;;5.82;4.10;;;23.60;99.90;;;;;;4956227;28;20661;-90
2023/05/20 15:44:55;;;;;;;5.93;4.15;;;23.60;99.90;;;;;;4959445;28;20247;-90
2023/05/20 15:47:22;;;;;;;4.35;3.63;;;23.60;99.90;;;;;;4968962;28;20199;-90
2023/05/20 15:49:49;;;;;;;3.95;3.50;;;23.60;99.90;;;;;;4960288;28;20197;-90
2023/05/20 15:52:16;;;;;;;4.85;3.53;;;23.60;99.90;;;;;;4955872;28;20204;-89
2023/05/20 15:54:43;;;;;;;6.45;4.18;;;23.50;99.90;;;;;;4969281;28;21757;-89
2023/05/20 15:57:10;;;;;;;4.22;3.38;;;23.40;99.90;;;;;;4954944;29;20220;-90
2023/05/20 15:59:37;;;;;;;4.10;3.70;;;23.30;99.90;;;;;;4954620;29;20200;-90
2023/05/20 16:02:06;;;;;;;4.60;3.65;;;23.30;99.90;;;;;;4961567;28;20211;-90
2023/05/20 16:04:33;;;;;;;5.53;3.95;;;23.20;99.90;;;;;;4963076;28;20248;-90
2023/05/20 16:07:00;;;;;;;6.07;3.45;;;23.20;99.90;;;;;;4954857;29;20588;-90
2023/05/20 16:09:27;;;;;;;4.32;3.55;;;23.20;99.90;;;;;;4955157;29;20291;-90
2023/05/20 16:11:54;;;;;;;5.00;3.92;;;23.20;99.90;;;;;;4968226;28;20236;-89
2023/05/20 16:14:21;;;;;;;4.85;3.85;;;23.20;99.90;;;;;;4965822;28;20254;-89
2023/05/20 16:16:48;;;;;;;4.43;3.60;;;23.10;99.90;;;;;;4965421;28;20203;-90
2023/05/20 16:19:17;;;;;;;5.47;3.80;;;23.10;99.90;;;;;;4965318;28;20208;-90
2023/05/20 16:21:44;;;;;;;5.38;4.07;;;23.10;99.90;;;;;;4969548;28;20197;-89
2023/05/20 16:24:11;;;;;;;4.07;3.67;;;23.10;99.90;;;;;;4955016;29;20282;-88
2023/05/20 16:26:38;;;;;;;4.00;3.60;;;23.10;99.90;;;;;;4936063;29;20812;-90
2023/05/20 16:29:05;;;;;;;5.63;3.90;;;23.10;99.90;;;;;;4950661;29;20732;-89
2023/05/20 16:31:32;;;;;;;3.97;3.40;;;23.20;99.90;;;;;;4957745;28;20204;-90
2023/05/20 16:33:59;;;;;;;5.35;3.47;;;23.20;99.90;;;;;;4967161;28;20678;-90
2023/05/20 16:36:27;;;;;;;6.50;4.05;;;23.30;99.90;;;;;;4954284;29;20205;-88
2023/05/20 16:38:54;;;;;;;6.55;3.60;;;23.20;99.90;;;;;;4968017;28;20270;-89
2023/05/20 16:41:21;;;;;;;4.25;3.85;;;23.30;99.90;;;;;;4956122;28;20204;-90
2023/05/20 16:43:48;;;;;;;7.88;3.88;;;23.40;99.90;;;;;;4958250;28;20657;-90
2023/05/20 16:46:15;;;;;;;5.05;4.30;;;23.40;99.90;;;;;;4956492;28;20243;-89
2023/05/20 16:48:42;;;;;;;4.30;3.90;;;23.50;99.90;;;;;;4973078;28;20239;-89
2023/05/20 16:51:10;;;;;;;9.63;4.35;;;23.60;99.90;;;;;;4961300;28;20239;-89
2023/05/20 16:53:38;;;;;;;5.28;3.90;;;23.80;99.90;;;;;;4961905;28;20200;-90
2023/05/20 16:56:07;;;;;;;5.85;3.95;;;23.90;99.90;;;;;;4957914;29;20236;-88
2023/05/20 16:58:35;;;;;;;5.80;4.10;;;24.10;99.90;;;;;;4961384;28;20295;-89
2023/05/20 17:01:02;;;;;;;4.85;4.10;;;24.20;99.90;;;;;;4960315;28;20192;-89
2023/05/20 17:03:28;;;;;;;8.48;4.10;;;24.20;99.90;;;;;;4958598;28;20619;-90
2023/05/20 17:05:56;;;;;;;7.20;4.18;;;24.40;99.90;;;;;;4975385;28;20223;-90
2023/05/20 17:08:22;;;;;;;5.82;4.50;;;24.50;99.90;;;;;;4958914;28;20686;-89
2023/05/20 17:10:51;;;;;;;9.07;4.80;;;24.60;99.90;;;;;;4962291;28;20659;-89
2023/05/20 17:13:18;;;;;;;6.07;4.50;;;24.80;99.90;;;;;;4968059;28;20246;-89
2023/05/20 17:15:45;;;;;;;9.70;4.80;;;25.00;99.90;;;;;;4957499;29;20204;-90
2023/05/20 17:18:12;;;;;;;6.35;4.40;;;25.10;99.90;;;;;;4957048;29;20220;-89
2023/05/20 17:20:39;;;;;;;5.72;4.38;;;25.20;99.90;;;;;;4968051;28;20203;-90
2023/05/20 17:23:06;;;;;;;7.13;4.40;;;25.30;99.90;;;;;;4965165;28;20200;-89
2023/05/20 17:25:32;;;;;;;7.43;4.60;;;25.40;99.90;;;;;;4957383;29;20204;-89
2023/05/20 17:28:01;;;;;;;5.13;4.63;;;25.40;99.90;;;;;;4956867;29;20562;-89
2023/05/20 17:30:28;;;;;;;5.80;4.47;;;25.50;99.90;;;;;;4956778;29;20204;-88
2023/05/20 17:32:56;;;;;;;5.40;4.28;;;25.30;99.90;;;;;;4957098;29;20208;-88
2023/05/20 17:35:24;;;;;;;5.85;4.72;;;25.30;99.90;;;;;;4970215;28;20266;-90
2023/05/20 17:37:51;;;;;;;6.97;4.60;;;25.20;99.90;;;;;;4967398;28;20364;-89
2023/05/20 17:40:19;;;;;;;7.20;4.72;;;25.20;99.90;;;;;;4967426;28;20204;-89
2023/05/20 17:42:47;;;;;;;5.20;4.70;;;25.20;99.90;;;;;;4971549;28;20289;-89
2023/05/20 17:45:15;;;;;;;5.00;4.60;;;24.90;99.90;;;;;;4975348;28;20814;-89
2023/05/20 17:47:42;;;;;;;5.57;4.55;;;24.80;99.90;;;;;;4959657;28;20216;-89
2023/05/20 17:50:10;;;;;;;6.82;5.00;;;24.60;99.90;;;;;;4963696;28;20609;-89
2023/05/20 17:52:37;;;;;;;5.72;4.80;;;24.30;99.90;;;;;;4971186;28;20199;-89
2023/05/20 17:55:05;;;;;;;5.50;4.80;;;23.60;99.90;;;;;;4971458;28;20238;-89
2023/05/20 17:57:32;;;;;;;9.00;5.00;;;22.90;99.90;;;;;;4972408;28;20216;-89
2023/05/20 17:59:59;;;;;;;7.20;5.40;;;22.30;99.90;;;;;;4956335;29;20251;-89
2023/05/20 18:02:27;;;;;;;8.63;5.43;;;21.90;99.90;;;;;;4965899;28;20218;-89
2023/05/20 18:04:54;;;;;;;9.38;5.32;;;21.50;99.90;;;;;;4967024;28;20549;-88
2023/05/20 18:07:21;;;;;;;7.35;5.35;;;21.20;99.90;;;;;;4966003;28;20208;-89
2023/05/20 18:09:48;;;;;;;5.95;4.95;;;21.00;99.90;;;;;;4957038;28;20196;-88
2023/05/20 18:12:15;;;;;;;9.13;5.38;;;20.70;99.90;;;;;;4959212;28;20647;-89
2023/05/20 18:14:42;;;;;;;6.35;5.22;;;20.50;99.90;;;;;;4956339;29;20200;-89
2023/05/20 18:17:09;;;;;;;7.00;5.40;;;20.30;99.90;;;;;;4967334;28;20247;-89
2023/05/20 18:19:37;;;;;;;7.22;5.40;;;20.10;99.90;;;;;;4963878;28;20217;-89
2023/05/20 18:22:06;;;;;;;6.40;5.72;;;20.00;99.90;;;;;;4955593;29;20736;-88
2023/05/20 18:24:32;;;;;;;7.00;5.60;;;19.80;99.90;;;;;;4955920;29;20550;-87
2023/05/20 18:26:59;;;;;;;6.95;5.45;;;19.60;99.90;;;;;;4960164;28;20664;-88
2023/05/20 18:29:26;;;;;;;7.70;5.93;;;19.50;1.00;;;;;;4965218;28;20192;-88
2023/05/20 18:31:53;;;;;;;5.70;5.20;;;19.30;1.00;;;;;;4966125;28;20251;-89
2023/05/20 18:34:20;;;;;;;8.57;6.13;;;19.20;1.00;;;;;;4969501;28;20195;-88
2023/05/20 18:36:49;;;;;;;8.52;5.55;;;19.10;1.00;;;;;;4955416;29;20247;-88
2023/05/20 18:39:19;;;;;;;7.07;6.03;;;19.00;1.00;;;;;;4970836;28;20220;-88
2023/05/20 18:41:46;;;;;;;7.20;5.78;;;18.90;1.00;;;;;;4969287;28;20203;-88
2023/05/20 18:44:13;;;;;;;7.40;5.97;;;18.70;1.00;;;;;;4958162;28;20293;-88
2023/05/20 18:46:40;;;;;;;9.00;6.03;;;18.60;1.00;;;;;;4959018;28;20558;-88
2023/05/20 18:49:09;;;;;;;7.60;6.03;;;18.50;1.00;;;;;;4958413;28;20202;-89
2023/05/20 18:51:36;;;;;;;13.70;6.47;;;18.30;99.90;;;;;;4955509;28;20346;-87
2023/05/20 18:54:04;;;;;;;7.70;6.10;;;18.30;99.90;;;;;;4959614;28;20196;-87
2023/05/20 18:56:32;;;;;;;8.00;6.30;;;18.10;99.90;;;;;;4959139;28;20228;-88
2023/05/20 18:58:59;;;;;;;6.90;6.20;;;18.00;99.90;;;;;;4958998;28;20301;-87
2023/05/20 19:01:26;;;;;;;7.35;6.32;;;17.80;99.90;;;;;;4956214;28;20200;-88
2023/05/20 19:03:53;;;;;;;6.95;6.20;;;17.80;1.00;;;;;;4968676;28;20200;-88
2023/05/20 19:06:20;;;;;;;11.48;7.10;;;17.70;1.00;;;;;;4970253;28;20200;-87
2023/05/20 19:08:49;;;;;;;8.63;6.60;;;17.60;1.00;;;;;;4970962;28;20254;-88
2023/05/20 19:11:17;;;;;;;8.73;7.18;;;17.50;1.00;;;;;;4961199;28;20282;-87
2023/05/20 19:13:44;;;;;;;9.20;6.70;;;17.40;1.00;;;;;;4958909;28;20224;-88
2023/05/20 19:16:11;;;;;;;8.63;7.32;;;17.40;1.00;;;;;;4958252;28;20195;-88
2023/05/20 19:18:38;;;;;;;9.52;6.95;;;17.20;1.00;;;;;;4954692;28;20692;-88
2023/05/20 19:21:05;;;;;;;8.55;6.70;;;17.10;1.00;;;;;;4958919;28;20192;-87
2023/05/20 19:23:32;;;;;;;7.72;6.70;;;16.90;57.60;;;;;;4958773;28;20255;-87
2023/05/20 19:25:59;;;;;;;8.40;7.15;;;16.80;99.90;;;;;;4958545;28;20284;-88
2023/05/20 19:28:27;;;;;;;8.45;7.00;;;16.70;99.90;;;;;;4955756;28;20205;-87
2023/05/20 19:30:54;;;;;;;8.30;7.22;;;16.60;99.90;;;;;;4968077;28;20200;-87
2023/05/20 19:33:21;;;;;;;10.20;7.38;;;16.60;99.90;;;;;;4969874;28;20203;-86
2023/05/20 19:35:48;;;;;;;9.10;7.35;;;16.60;1.00;;;;;;4966906;28;20671;-87
2023/05/20 19:38:15;;;;;;;8.98;7.55;;;16.50;1.00;;;;;;4961194;28;20279;-87
2023/05/20 19:40:43;;;;;;;8.30;6.88;;;16.50;1.00;;;;;;4954282;29;20615;-88
2023/05/20 19:43:10;;;;;;;10.25;7.25;;;16.50;1.00;;;;;;4954238;28;20264;-88
2023/05/20 19:45:39;;;;;;;11.40;7.53;;;16.40;1.00;;;;;;4969672;28;20199;-88
2023/05/20 19:48:06;;;;;;;8.70;7.32;;;16.40;1.00;;;;;;4969100;28;20739;-87
2023/05/20 19:50:34;;;;;;;8.13;7.28;;;16.30;1.00;;;;;;4958804;28;20251;-87
2023/05/20 19:53:04;;;;;;;8.70;7.80;;;16.30;1.00;;;;;;4958356;28;20197;-87
2023/05/20 19:55:31;;;;;;;8.57;7.68;;;16.30;1.00;;;;;;4954252;29;20204;-87
2023/05/20 19:57:58;;;;;;;11.45;8.20;;;16.30;1.00;;;;;;4955866;28;20193;-88
2023/05/20 20:00:26;;;;;;;10.07;8.07;;;16.20;40.80;;;;;;4956170;28;20300;-87
2023/05/20 20:02:55;;;;;;;11.73;8.02;;;16.20;99.90;;;;;;4956457;28;20208;-87